Time;durP1;ratioP1;P1;durP2;ratioP2;P2;SDS_P1;SDS_P2;PMS_P1;PMS_P2;Temp;Humidity;BMP_temperature;BMP_pressure;BME280_temperature;BME280_humidity;BME280_pressure;Samples;Min_cycle;Max_cycle;Signal;HPM_P1;HPM_P2
2021/09/08 00:01:24;;;;;;;1.50;1.10;;;18.80;98.20;;;;;;4964388;28;20485;-76
2021/09/08 00:03:52;;;;;;;1.50;0.90;;;18.80;98.20;;;;;;4980598;28;20461;-78
2021/09/08 00:06:19;;;;;;;1.50;0.90;;;18.80;98.20;;;;;;4948805;28;20487;-76
2021/09/08 00:08:46;;;;;;;1.50;0.90;;;18.70;98.20;;;;;;4967703;28;20482;-76
2021/09/08 00:11:12;;;;;;;1.50;0.90;;;18.70;98.20;;;;;;4960832;28;20489;-75
2021/09/08 00:13:39;;;;;;;1.50;0.90;;;18.70;98.20;;;;;;4981221;28;20466;-78
2021/09/08 00:16:06;;;;;;;1.50;1.00;;;18.70;98.20;;;;;;4955519;28;20475;-78
2021/09/08 00:18:33;;;;;;;1.50;1.00;;;18.60;98.20;;;;;;4982523;28;20489;-78
2021/09/08 00:21:01;;;;;;;1.50;0.90;;;18.60;98.20;;;;;;4959786;28;21047;-78
2021/09/08 00:23:27;;;;;;;1.50;1.10;;;18.60;98.20;;;;;;4969015;28;20850;-77
2021/09/08 00:25:54;;;;;;;1.50;1.00;;;18.60;98.20;;;;;;4957163;28;20462;-76
2021/09/08 00:28:21;;;;;;;1.50;1.00;;;18.60;98.20;;;;;;4973246;28;20477;-77
2021/09/08 00:30:48;;;;;;;1.50;0.90;;;18.60;98.20;;;;;;4963743;28;20473;-76
2021/09/08 00:33:14;;;;;;;2.73;1.20;;;18.60;98.20;;;;;;4977383;28;20473;-77
2021/09/08 00:35:41;;;;;;;1.50;1.00;;;18.60;98.20;;;;;;4971870;28;20485;-77
2021/09/08 00:38:11;;;;;;;1.50;0.90;;;18.60;98.20;;;;;;4977839;28;20489;-77
2021/09/08 00:40:39;;;;;;;1.50;0.90;;;18.50;98.20;;;;;;4965702;28;20953;-75
2021/09/08 00:43:06;;;;;;;1.53;1.00;;;18.50;98.20;;;;;;4960111;28;20486;-77
2021/09/08 00:45:32;;;;;;;1.50;1.00;;;18.50;98.20;;;;;;4971448;28;20461;-78
2021/09/08 00:47:59;;;;;;;1.50;1.00;;;18.40;98.20;;;;;;4977742;28;20484;-77
2021/09/08 00:50:26;;;;;;;2.47;1.27;;;18.40;98.20;;;;;;4970853;28;20465;-77
2021/09/08 00:52:54;;;;;;;1.50;0.90;;;18.40;98.20;;;;;;4970277;28;20483;-77
2021/09/08 00:55:22;;;;;;;1.50;1.00;;;18.40;98.20;;;;;;4971337;28;20552;-77
2021/09/08 00:57:49;;;;;;;1.50;1.00;;;18.40;98.20;;;;;;4978099;28;20496;-76
2021/09/08 01:00:17;;;;;;;1.50;0.90;;;18.40;98.20;;;;;;4966580;28;20470;-77
2021/09/08 01:02:43;;;;;;;1.50;1.00;;;18.30;98.20;;;;;;4977664;28;20987;-78
2021/09/08 01:05:11;;;;;;;1.50;1.00;;;18.30;98.20;;;;;;4972916;28;20462;-77
2021/09/08 01:07:40;;;;;;;1.50;1.00;;;18.30;98.20;;;;;;4974846;28;20488;-78
2021/09/08 01:10:08;;;;;;;1.50;1.00;;;18.30;98.20;;;;;;4972792;28;20465;-78
2021/09/08 01:12:36;;;;;;;1.50;0.97;;;18.30;98.20;;;;;;4974596;28;20591;-77
2021/09/08 01:15:03;;;;;;;1.50;1.00;;;18.30;98.20;;;;;;4973038;28;20488;-78
2021/09/08 01:17:30;;;;;;;1.50;1.00;;;18.30;98.20;;;;;;4960354;28;20925;-78
2021/09/08 01:19:56;;;;;;;1.50;0.90;;;18.30;98.20;;;;;;4973294;28;20872;-76
2021/09/08 01:22:30;;;;;;;1.50;1.00;;;18.30;98.20;;;;;;4975530;28;20484;-78
2021/09/08 01:24:58;;;;;;;1.57;1.00;;;18.30;98.20;;;;;;4969194;28;20973;-75
2021/09/08 01:27:26;;;;;;;1.50;1.00;;;18.30;98.20;;;;;;4972770;28;20488;-76
2021/09/08 01:29:53;;;;;;;1.50;0.90;;;18.30;98.20;;;;;;4975686;28;20845;-76
2021/09/08 01:32:19;;;;;;;1.50;1.00;;;18.30;98.20;;;;;;4956886;28;20489;-76
2021/09/08 01:34:46;;;;;;;1.50;1.00;;;18.30;98.20;;;;;;4973084;28;20868;-76
2021/09/08 01:37:13;;;;;;;1.50;0.90;;;18.20;98.20;;;;;;4971151;28;20485;-78
2021/09/08 01:39:40;;;;;;;1.50;0.90;;;18.20;98.20;;;;;;4973781;28;20505;-76
2021/09/08 01:42:08;;;;;;;1.50;0.90;;;18.20;98.20;;;;;;4959685;28;20477;-75
2021/09/08 01:44:34;;;;;;;1.50;0.90;;;18.20;98.20;;;;;;4965839;28;20472;-76
2021/09/08 01:47:01;;;;;;;1.50;0.90;;;18.20;98.20;;;;;;4963280;28;20487;-76
2021/09/08 01:49:28;;;;;;;1.50;0.90;;;18.20;98.20;;;;;;4971485;28;20482;-75
2021/09/08 01:51:55;;;;;;;1.50;0.90;;;18.10;98.20;;;;;;4960409;28;20485;-78
2021/09/08 01:54:21;;;;;;;1.50;1.00;;;18.10;98.20;;;;;;4966569;28;20481;-77
2021/09/08 01:56:48;;;;;;;1.50;1.00;;;18.10;98.20;;;;;;4948370;28;20481;-77
2021/09/08 01:59:16;;;;;;;1.50;0.90;;;18.10;98.20;;;;;;4976458;28;20481;-77
2021/09/08 02:01:43;;;;;;;1.50;1.00;;;18.00;98.20;;;;;;4955234;28;20474;-77
2021/09/08 02:04:10;;;;;;;1.50;0.90;;;18.00;98.20;;;;;;4968932;28;20466;-77
2021/09/08 02:06:48;;;;;;;1.50;0.90;;;18.00;98.20;;;;;;4951170;28;20493;-78
2021/09/08 02:09:14;;;;;;;1.50;1.00;;;17.90;98.20;;;;;;4970180;28;20482;-78
2021/09/08 02:11:42;;;;;;;1.50;1.10;;;17.90;98.20;;;;;;4958889;28;20496;-77
2021/09/08 02:14:08;;;;;;;1.50;1.00;;;17.80;98.20;;;;;;4970042;28;20462;-78
2021/09/08 02:16:37;;;;;;;1.50;1.00;;;17.80;98.20;;;;;;4956679;28;20481;-77
2021/09/08 02:19:03;;;;;;;1.50;0.90;;;17.70;98.20;;;;;;4970634;28;20485;-77
2021/09/08 02:21:30;;;;;;;1.50;1.00;;;17.60;98.20;;;;;;4960847;28;20485;-77
2021/09/08 02:23:57;;;;;;;1.50;0.90;;;17.60;98.20;;;;;;4970677;28;20469;-77
2021/09/08 02:26:24;;;;;;;1.50;0.90;;;17.50;98.20;;;;;;4959454;28;20486;-78
2021/09/08 02:28:51;;;;;;;1.50;0.90;;;17.50;98.20;;;;;;4972255;28;20874;-77
2021/09/08 02:31:18;;;;;;;1.50;0.90;;;17.40;98.20;;;;;;4964828;28;20488;-77
2021/09/08 02:33:46;;;;;;;1.80;1.53;;;17.40;98.20;;;;;;4981213;28;20470;-77
2021/09/08 02:36:12;;;;;;;1.50;1.00;;;17.40;98.20;;;;;;4954022;28;20477;-77
2021/09/08 02:38:39;;;;;;;1.50;1.00;;;17.40;98.20;;;;;;4965245;28;20485;-77
2021/09/08 02:41:07;;;;;;;1.50;0.90;;;17.30;98.20;;;;;;4960381;28;20474;-77
2021/09/08 02:43:35;;;;;;;1.50;0.90;;;17.30;98.20;;;;;;4968379;28;20558;-77
2021/09/08 02:46:03;;;;;;;1.50;1.00;;;17.30;98.20;;;;;;4959973;28;20462;-76
2021/09/08 02:48:30;;;;;;;1.50;1.00;;;17.20;98.20;;;;;;4981307;28;20536;-78
2021/09/08 02:50:58;;;;;;;1.50;0.90;;;17.20;98.20;;;;;;4959238;28;20960;-78
2021/09/08 02:53:25;;;;;;;1.53;1.00;;;17.20;98.20;;;;;;4983326;28;20462;-77
2021/09/08 02:55:52;;;;;;;1.50;1.00;;;17.20;98.20;;;;;;4956948;28;20490;-76
2021/09/08 02:58:18;;;;;;;1.50;1.00;;;17.20;98.20;;;;;;4967672;28;20486;-77
2021/09/08 03:00:45;;;;;;;3.30;2.10;;;17.20;98.20;;;;;;4968842;28;20466;-77
2021/09/08 03:03:12;;;;;;;1.50;0.93;;;17.20;98.20;;;;;;4957233;28;20474;-77
2021/09/08 03:05:39;;;;;;;1.50;1.00;;;17.30;98.20;;;;;;4968306;28;20465;-77
2021/09/08 03:08:07;;;;;;;1.50;1.00;;;17.20;98.20;;;;;;4956280;28;21067;-77
2021/09/08 03:10:35;;;;;;;1.50;1.00;;;17.20;98.20;;;;;;4970383;28;20485;-78
2021/09/08 03:13:02;;;;;;;1.50;0.90;;;17.20;98.20;;;;;;4972653;28;20473;-77
2021/09/08 03:15:30;;;;;;;1.53;1.00;;;17.20;98.20;;;;;;4966199;28;20953;-77
2021/09/08 03:17:56;;;;;;;1.50;1.00;;;17.20;98.20;;;;;;4971579;28;20493;-77
2021/09/08 03:20:23;;;;;;;1.50;1.00;;;17.20;98.20;;;;;;4965462;28;20458;-77
2021/09/08 03:22:50;;;;;;;1.50;1.00;;;17.10;98.20;;;;;;4971923;28;20488;-77
2021/09/08 03:25:18;;;;;;;1.50;0.90;;;17.10;98.20;;;;;;4967164;28;20461;-77
2021/09/08 03:27:45;;;;;;;1.50;1.00;;;17.10;98.20;;;;;;4972545;28;20480;-78
2021/09/08 03:30:12;;;;;;;1.50;1.00;;;17.10;98.20;;;;;;4970336;28;20462;-77
2021/09/08 03:32:39;;;;;;;1.50;1.00;;;17.00;98.20;;;;;;4971855;28;20485;-77
2021/09/08 03:35:06;;;;;;;1.50;1.00;;;17.00;98.20;;;;;;4969336;28;20492;-77
2021/09/08 03:37:33;;;;;;;1.50;1.00;;;17.00;98.20;;;;;;4970497;28;20481;-77
2021/09/08 03:40:00;;;;;;;1.50;1.00;;;17.00;98.20;;;;;;4969172;28;20462;-77
2021/09/08 03:42:28;;;;;;;1.50;1.00;;;16.90;98.20;;;;;;4960649;28;20505;-77
2021/09/08 03:44:55;;;;;;;1.50;1.00;;;16.90;98.20;;;;;;4967675;28;21029;-77
2021/09/08 03:47:21;;;;;;;1.50;1.00;;;16.90;98.20;;;;;;4957557;28;20478;-77
2021/09/08 03:49:48;;;;;;;1.50;1.00;;;16.90;98.20;;;;;;4964869;28;20495;-77
2021/09/08 03:52:16;;;;;;;1.50;0.90;;;16.90;98.20;;;;;;4957831;28;20511;-77
2021/09/08 03:54:43;;;;;;;1.50;0.90;;;16.80;98.20;;;;;;4960506;28;20516;-77
2021/09/08 03:57:10;;;;;;;1.57;1.00;;;16.80;98.20;;;;;;4953655;28;21267;-77
2021/09/08 03:59:39;;;;;;;1.50;0.97;;;16.80;98.20;;;;;;4965862;28;20492;-77
2021/09/08 04:02:05;;;;;;;1.50;0.90;;;16.80;98.20;;;;;;4965894;28;20568;-78
2021/09/08 04:04:32;;;;;;;2.23;2.03;;;16.80;98.20;;;;;;4967418;28;20462;-77
2021/09/08 04:06:59;;;;;;;1.50;1.00;;;16.70;98.20;;;;;;4962806;28;20499;-77
2021/09/08 04:09:26;;;;;;;1.50;1.00;;;16.70;98.20;;;;;;4970444;28;21137;-77
2021/09/08 04:11:53;;;;;;;1.50;1.00;;;16.70;98.20;;;;;;4964570;28;20488;-77
2021/09/08 04:14:22;;;;;;;1.50;0.97;;;16.70;98.20;;;;;;4975010;28;20458;-77
2021/09/08 04:16:51;;;;;;;1.50;1.00;;;16.70;98.20;;;;;;4965446;28;21008;-77
2021/09/08 04:19:17;;;;;;;1.50;1.10;;;16.70;98.20;;;;;;4975454;28;20515;-77
2021/09/08 04:21:44;;;;;;;1.50;1.00;;;16.60;98.20;;;;;;4966081;28;20492;-77
2021/09/08 04:24:11;;;;;;;1.50;0.90;;;16.60;98.20;;;;;;4974537;28;20481;-77
2021/09/08 04:26:38;;;;;;;1.50;0.90;;;16.60;98.20;;;;;;4954772;28;21023;-77
2021/09/08 04:29:05;;;;;;;1.50;1.00;;;16.60;98.20;;;;;;4962253;28;20490;-77
2021/09/08 04:31:31;;;;;;;1.50;1.00;;;16.60;98.20;;;;;;4954097;28;21004;-77
2021/09/08 04:33:59;;;;;;;1.50;1.00;;;16.60;98.20;;;;;;4966505;28;20465;-77
2021/09/08 04:36:26;;;;;;;1.50;1.00;;;16.50;98.20;;;;;;4957918;28;20544;-77
2021/09/08 04:38:53;;;;;;;1.50;0.90;;;16.50;98.20;;;;;;4976291;28;20543;-77
2021/09/08 04:41:20;;;;;;;1.50;0.90;;;16.50;98.20;;;;;;4955555;28;20488;-77
2021/09/08 04:43:46;;;;;;;1.50;1.00;;;16.50;98.20;;;;;;4967484;28;20462;-77
2021/09/08 04:46:13;;;;;;;1.50;1.00;;;16.50;98.20;;;;;;4957265;28;20486;-77
2021/09/08 04:48:40;;;;;;;1.50;1.00;;;16.50;98.20;;;;;;4972522;28;20502;-77
2021/09/08 04:51:08;;;;;;;1.50;0.90;;;16.50;98.20;;;;;;4957764;28;20487;-77
2021/09/08 04:53:35;;;;;;;1.50;1.00;;;16.40;98.20;;;;;;4963871;28;20468;-77
2021/09/08 04:56:04;;;;;;;1.50;0.90;;;16.40;98.20;;;;;;4955950;28;20482;-76
2021/09/08 04:58:31;;;;;;;1.50;0.90;;;16.40;98.20;;;;;;4968879;28;20486;-77
2021/09/08 05:00:58;;;;;;;1.50;1.00;;;16.40;98.20;;;;;;4957631;28;21055;-76
2021/09/08 05:03:25;;;;;;;1.60;1.20;;;16.40;98.20;;;;;;4975420;28;20466;-77
2021/09/08 05:05:52;;;;;;;1.50;1.00;;;16.40;98.20;;;;;;4959549;28;20470;-77
2021/09/08 05:08:20;;;;;;;1.50;1.00;;;16.30;98.20;;;;;;4982816;28;20505;-77
2021/09/08 05:10:47;;;;;;;1.50;1.00;;;16.30;98.20;;;;;;4964237;28;20833;-77
2021/09/08 05:13:13;;;;;;;1.50;1.00;;;16.30;98.20;;;;;;4982006;28;20483;-77
2021/09/08 05:15:40;;;;;;;1.50;0.90;;;16.30;98.20;;;;;;4971831;28;20980;-76
2021/09/08 05:18:07;;;;;;;1.50;1.00;;;16.30;98.20;;;;;;4973985;28;21010;-77
2021/09/08 05:20:34;;;;;;;1.50;1.10;;;16.30;98.20;;;;;;4973852;28;20450;-78
2021/09/08 05:23:01;;;;;;;1.50;0.90;;;16.30;98.20;;;;;;4978749;28;20845;-78
2021/09/08 05:25:29;;;;;;;1.50;1.00;;;16.30;98.20;;;;;;4974599;28;20454;-78
2021/09/08 05:27:56;;;;;;;1.50;1.00;;;16.30;98.20;;;;;;4962227;28;20481;-78
2021/09/08 05:30:22;;;;;;;1.50;0.90;;;16.30;98.20;;;;;;4957723;28;20526;-78
2021/09/08 05:32:49;;;;;;;1.50;1.00;;;16.30;98.20;;;;;;4967824;28;20483;-77
2021/09/08 05:35:16;;;;;;;1.50;1.00;;;16.30;98.20;;;;;;4963229;28;20957;-77
2021/09/08 05:37:44;;;;;;;1.50;1.00;;;16.30;98.20;;;;;;4962573;28;20538;-77
2021/09/08 05:40:11;;;;;;;1.50;1.00;;;16.40;98.20;;;;;;4961224;28;21020;-77
2021/09/08 05:42:40;;;;;;;1.50;0.90;;;16.40;98.20;;;;;;4956277;28;20493;-77
2021/09/08 05:45:07;;;;;;;1.50;1.00;;;16.50;98.20;;;;;;4968871;28;20463;-78
2021/09/08 05:47:34;;;;;;;1.50;0.90;;;16.50;98.20;;;;;;4961695;28;20481;-77
2021/09/08 05:50:03;;;;;;;1.50;1.00;;;16.60;98.20;;;;;;4972187;28;20502;-76
2021/09/08 05:52:30;;;;;;;1.50;0.90;;;16.60;98.20;;;;;;4960144;28;20509;-78
2021/09/08 05:54:57;;;;;;;1.50;0.90;;;16.70;98.20;;;;;;4971281;28;20583;-78
2021/09/08 05:57:24;;;;;;;1.50;0.90;;;16.80;98.20;;;;;;4962309;28;20489;-78
2021/09/08 05:59:52;;;;;;;1.50;1.00;;;16.90;98.20;;;;;;4972659;28;20490;-78
2021/09/08 06:02:19;;;;;;;1.50;0.93;;;17.00;98.20;;;;;;4961004;28;20516;-77
2021/09/08 06:04:46;;;;;;;1.50;1.00;;;17.10;98.20;;;;;;4976868;28;20524;-78
2021/09/08 06:07:13;;;;;;;1.50;1.00;;;17.20;98.20;;;;;;4957668;28;20496;-77
2021/09/08 06:09:40;;;;;;;1.50;0.90;;;17.40;98.20;;;;;;4972509;28;20564;-78
2021/09/08 06:12:07;;;;;;;1.50;1.00;;;17.50;98.20;;;;;;4973401;28;20488;-77
2021/09/08 06:14:34;;;;;;;1.50;1.00;;;17.70;98.20;;;;;;4972988;28;20466;-78
2021/09/08 06:17:02;;;;;;;1.50;1.00;;;17.90;98.20;;;;;;4971869;28;20485;-78
2021/09/08 06:19:29;;;;;;;1.50;1.00;;;18.00;98.20;;;;;;4968613;28;20487;-78
2021/09/08 06:21:56;;;;;;;1.50;0.90;;;18.20;98.20;;;;;;4952035;28;20478;-78
2021/09/08 06:24:23;;;;;;;1.50;0.90;;;18.30;98.20;;;;;;4972720;28;20472;-78
2021/09/08 06:26:50;;;;;;;1.50;0.90;;;18.40;98.20;;;;;;4952142;28;20957;-77
2021/09/08 06:29:16;;;;;;;1.50;0.93;;;18.50;98.20;;;;;;4972857;28;20485;-78
2021/09/08 06:31:43;;;;;;;1.50;0.90;;;18.60;98.20;;;;;;4971150;28;21128;-78
2021/09/08 06:34:12;;;;;;;1.70;1.20;;;18.70;98.20;;;;;;4980398;28;20458;-78
2021/09/08 06:36:38;;;;;;;1.80;1.10;;;18.80;98.20;;;;;;4969204;28;20588;-78
2021/09/08 06:39:06;;;;;;;1.50;0.90;;;19.00;98.20;;;;;;4979868;28;20488;-78
2021/09/08 06:41:33;;;;;;;1.50;0.90;;;19.20;98.20;;;;;;4951788;28;20482;-79
2021/09/08 06:43:59;;;;;;;1.50;1.00;;;19.40;97.90;;;;;;4972193;28;20450;-79
2021/09/08 06:46:26;;;;;;;1.50;0.90;;;19.40;97.60;;;;;;4953950;28;20482;-77
2021/09/08 06:48:54;;;;;;;1.57;1.00;;;19.60;97.70;;;;;;4971520;28;20482;-78
2021/09/08 06:51:22;;;;;;;1.50;0.90;;;19.70;96.90;;;;;;4966216;28;20519;-78
2021/09/08 06:53:49;;;;;;;1.50;0.90;;;19.90;96.40;;;;;;4983839;28;20477;-78
2021/09/08 06:56:16;;;;;;;1.50;0.90;;;20.00;96.50;;;;;;4953183;28;20981;-78
2021/09/08 06:58:43;;;;;;;1.50;0.90;;;20.10;96.40;;;;;;4971422;28;20934;-77
2021/09/08 07:01:10;;;;;;;1.50;0.90;;;20.30;95.70;;;;;;4960004;28;20476;-77
2021/09/08 07:03:36;;;;;;;1.50;0.90;;;20.50;95.60;;;;;;4972165;28;20734;-78
2021/09/08 07:06:03;;;;;;;1.50;0.90;;;20.70;94.60;;;;;;4962691;28;20548;-78
2021/09/08 07:08:31;;;;;;;1.50;0.90;;;20.70;94.40;;;;;;4984748;28;20501;-78
2021/09/08 07:10:58;;;;;;;1.50;0.90;;;20.80;94.30;;;;;;4960522;28;20459;-78
2021/09/08 07:13:25;;;;;;;1.50;0.90;;;20.90;94.10;;;;;;4971062;28;21057;-78
2021/09/08 07:15:51;;;;;;;2.37;2.17;;;21.10;92.80;;;;;;4963369;28;20458;-78
2021/09/08 07:18:18;;;;;;;1.50;0.90;;;21.10;92.70;;;;;;4986751;28;20489;-78
2021/09/08 07:20:45;;;;;;;3.20;1.73;;;21.20;92.60;;;;;;4973438;28;20494;-77
2021/09/08 07:23:12;;;;;;;1.53;0.90;;;21.30;91.70;;;;;;4960454;28;20473;-77
2021/09/08 07:25:40;;;;;;;1.50;1.00;;;21.30;91.30;;;;;;4973407;28;20945;-77
2021/09/08 07:28:07;;;;;;;1.50;0.90;;;21.40;91.50;;;;;;4979081;28;20583;-77
2021/09/08 07:30:34;;;;;;;1.50;0.90;;;21.40;91.80;;;;;;4956552;28;20954;-78
2021/09/08 07:33:01;;;;;;;1.50;0.90;;;21.50;91.40;;;;;;4962239;28;20473;-78
2021/09/08 07:35:31;;;;;;;1.50;0.90;;;21.50;90.90;;;;;;4971710;28;20752;-79
2021/09/08 07:38:00;;;;;;;1.50;0.90;;;21.50;91.10;;;;;;4976606;28;20610;-78
2021/09/08 07:40:28;;;;;;;1.50;0.90;;;21.60;90.70;;;;;;4971688;28;20501;-78
2021/09/08 07:42:56;;;;;;;1.50;0.90;;;21.70;90.80;;;;;;4975335;28;20519;-79
2021/09/08 07:45:23;;;;;;;1.50;0.90;;;21.80;90.60;;;;;;4971410;28;20462;-78
2021/09/08 07:47:50;;;;;;;1.50;0.90;;;21.80;90.60;;;;;;4959460;28;20509;-78
2021/09/08 07:50:17;;;;;;;1.53;0.90;;;21.90;90.50;;;;;;4967958;28;20469;-80
2021/09/08 07:52:44;;;;;;;1.50;0.90;;;22.00;90.70;;;;;;4976933;28;20485;-78
2021/09/08 07:55:12;;;;;;;1.50;0.90;;;22.20;90.60;;;;;;4970069;28;20459;-78
2021/09/08 07:57:40;;;;;;;1.50;0.90;;;22.40;89.90;;;;;;4954965;28;20664;-79
2021/09/08 08:00:10;;;;;;;1.50;0.90;;;22.40;89.40;;;;;;4969499;28;20906;-77
2021/09/08 08:02:44;;;;;;;1.50;1.00;;;22.50;89.00;;;;;;4971688;28;20536;-79
2021/09/08 08:05:11;;;;;;;1.53;0.90;;;22.70;88.60;;;;;;4969521;28;20462;-78
2021/09/08 08:07:39;;;;;;;1.50;0.90;;;22.80;88.40;;;;;;4975422;28;20472;-80
2021/09/08 08:10:07;;;;;;;1.50;0.90;;;22.90;87.90;;;;;;4970896;28;20498;-79
2021/09/08 08:12:34;;;;;;;1.50;0.90;;;23.00;87.60;;;;;;4973683;28;20480;-78
2021/09/08 08:15:01;;;;;;;1.50;1.00;;;23.10;87.80;;;;;;4968462;28;20995;-79
2021/09/08 08:17:29;;;;;;;1.50;0.90;;;23.20;87.90;;;;;;4972310;28;20548;-78
2021/09/08 08:19:56;;;;;;;1.50;1.00;;;23.40;87.60;;;;;;4969334;28;20475;-77
2021/09/08 08:22:23;;;;;;;1.50;1.00;;;23.50;86.90;;;;;;4970744;28;20916;-78
2021/09/08 08:24:49;;;;;;;1.50;0.90;;;23.60;85.90;;;;;;4974077;28;20462;-78
2021/09/08 08:27:16;;;;;;;1.50;0.90;;;23.70;86.50;;;;;;4956180;28;20911;-78
2021/09/08 08:29:43;;;;;;;1.50;1.00;;;23.80;86.00;;;;;;4969469;28;20640;-77
2021/09/08 08:32:10;;;;;;;1.50;0.90;;;23.80;85.90;;;;;;4969831;28;20492;-78
2021/09/08 08:34:38;;;;;;;1.90;1.40;;;23.80;85.50;;;;;;4973982;28;20472;-77
2021/09/08 08:37:05;;;;;;;1.50;0.90;;;23.70;85.30;;;;;;4951887;28;20485;-77
2021/09/08 08:39:32;;;;;;;2.00;1.27;;;23.80;85.90;;;;;;4968513;28;20830;-77
2021/09/08 08:41:59;;;;;;;2.07;1.83;;;24.00;85.60;;;;;;4965343;28;21012;-78
2021/09/08 08:44:26;;;;;;;1.50;0.90;;;24.10;85.70;;;;;;4968922;28;20483;-78
2021/09/08 08:46:54;;;;;;;1.50;0.90;;;24.20;85.30;;;;;;4967674;28;20477;-77
2021/09/08 08:49:21;;;;;;;1.90;1.47;;;24.30;84.60;;;;;;4978149;28;20486;-78
2021/09/08 08:51:49;;;;;;;1.50;1.00;;;24.40;84.50;;;;;;4968928;28;20484;-78
2021/09/08 08:54:17;;;;;;;1.50;0.90;;;24.50;84.90;;;;;;4977005;28;20474;-78
2021/09/08 08:56:43;;;;;;;1.50;0.90;;;24.60;84.90;;;;;;4960974;28;20489;-77
2021/09/08 08:59:10;;;;;;;1.53;1.10;;;24.70;84.30;;;;;;4969738;28;20477;-78
2021/09/08 09:01:38;;;;;;;1.60;1.00;;;24.90;84.10;;;;;;4968648;28;21156;-77
2021/09/08 09:04:06;;;;;;;1.50;0.90;;;25.00;83.00;;;;;;4982799;28;20529;-78
2021/09/08 09:06:34;;;;;;;1.50;0.90;;;25.10;83.00;;;;;;4959294;28;20576;-78
2021/09/08 09:09:05;;;;;;;1.50;0.90;;;25.20;82.80;;;;;;4969978;28;20577;-78
2021/09/08 09:11:33;;;;;;;1.50;0.90;;;25.30;83.40;;;;;;4965960;28;20555;-78
2021/09/08 09:14:01;;;;;;;1.50;0.90;;;25.50;82.60;;;;;;4983087;28;20535;-77
2021/09/08 09:16:29;;;;;;;1.50;1.00;;;25.60;81.60;;;;;;4955698;28;20489;-77
2021/09/08 09:18:56;;;;;;;1.50;0.80;;;25.70;82.10;;;;;;4970257;28;20482;-79
2021/09/08 09:21:25;;;;;;;1.50;0.90;;;25.80;81.20;;;;;;4966055;28;20526;-77
2021/09/08 09:24:00;;;;;;;1.50;0.90;;;25.90;82.10;;;;;;4981262;28;20468;-77
2021/09/08 09:26:33;;;;;;;1.50;0.90;;;26.10;81.30;;;;;;4958447;28;20510;-78
2021/09/08 09:29:07;;;;;;;1.50;0.90;;;26.20;80.80;;;;;;4969681;28;20492;-78
2021/09/08 09:31:35;;;;;;;1.60;1.10;;;26.20;80.00;;;;;;4966040;28;20484;-77
2021/09/08 09:34:02;;;;;;;1.63;1.30;;;26.20;80.80;;;;;;4980268;28;20652;-77
2021/09/08 09:36:30;;;;;;;1.50;0.80;;;26.30;80.60;;;;;;4964360;28;20519;-79
2021/09/08 09:38:58;;;;;;;1.50;0.80;;;26.40;80.50;;;;;;4980757;28;20481;-79
2021/09/08 09:41:35;;;;;;;1.70;1.53;;;26.50;81.00;;;;;;4965189;28;20887;-78
2021/09/08 09:44:09;;;;;;;1.70;1.00;;;26.50;80.30;;;;;;4979905;28;21054;-78
2021/09/08 09:46:39;;;;;;;1.60;1.10;;;26.60;80.40;;;;;;4966988;28;20559;-79
2021/09/08 09:49:06;;;;;;;1.60;1.00;;;26.80;79.20;;;;;;4977753;28;20939;-78
2021/09/08 09:51:33;;;;;;;1.50;0.90;;;26.80;78.70;;;;;;4964175;28;20480;-80
2021/09/08 09:54:00;;;;;;;1.50;0.80;;;26.90;80.30;;;;;;4977718;28;20470;-79
2021/09/08 09:56:27;;;;;;;1.50;0.80;;;27.00;79.00;;;;;;4967265;28;20488;-78
2021/09/08 09:58:56;;;;;;;1.50;0.90;;;27.10;79.20;;;;;;4981466;28;21344;-77
2021/09/08 10:01:23;;;;;;;1.50;0.80;;;27.10;78.30;;;;;;4965549;28;21073;-79
2021/09/08 10:03:50;;;;;;;1.50;0.80;;;27.10;78.50;;;;;;4981466;28;20500;-78
2021/09/08 10:06:20;;;;;;;1.50;0.90;;;27.10;78.50;;;;;;4964173;28;21250;-78
2021/09/08 10:08:49;;;;;;;1.60;1.20;;;27.10;77.90;;;;;;4980614;28;20507;-78
2021/09/08 10:11:20;;;;;;;1.50;0.90;;;27.10;77.80;;;;;;4963930;28;20539;-77
2021/09/08 10:13:51;;;;;;;1.50;0.80;;;27.10;77.50;;;;;;4975147;28;20470;-78
2021/09/08 10:16:22;;;;;;;1.50;0.90;;;27.10;77.50;;;;;;4963977;28;21062;-77
2021/09/08 10:18:49;;;;;;;1.50;0.80;;;27.30;77.20;;;;;;4978326;28;20581;-78
2021/09/08 10:21:19;;;;;;;1.50;1.00;;;27.30;77.10;;;;;;4960677;28;20567;-77
2021/09/08 10:23:55;;;;;;;1.50;0.90;;;27.50;76.70;;;;;;4979695;28;20476;-78
2021/09/08 10:26:27;;;;;;;1.50;0.80;;;27.60;76.20;;;;;;4958887;28;20484;-78
2021/09/08 10:28:57;;;;;;;1.50;0.80;;;27.60;75.00;;;;;;4977265;28;20588;-78
2021/09/08 10:31:26;;;;;;;1.50;0.90;;;27.70;75.70;;;;;;4964405;28;20484;-78
2021/09/08 10:33:56;;;;;;;1.50;0.90;;;27.70;75.70;;;;;;4975845;28;20466;-78
2021/09/08 10:36:23;;;;;;;1.50;0.80;;;27.80;75.50;;;;;;4963528;28;20488;-79
2021/09/08 10:39:07;;;;;;;1.50;0.90;;;27.90;75.80;;;;;;4980066;28;20489;-77
2021/09/08 10:41:39;;;;;;;1.50;0.80;;;28.10;74.80;;;;;;4965293;28;20480;-78
2021/09/08 10:44:06;;;;;;;1.40;0.90;;;28.30;74.20;;;;;;4979718;28;20901;-78
2021/09/08 10:46:50;;;;;;;1.50;0.90;;;28.20;73.70;;;;;;4960124;28;20547;-77
2021/09/08 10:49:54;;;;;;;1.47;0.80;;;28.30;74.10;;;;;;4975015;28;20487;-80
2021/09/08 10:52:44;;;;;;;1.83;0.90;;;28.40;73.00;;;;;;4968271;28;20496;-77
2021/09/08 10:55:22;;;;;;;1.47;0.80;;;28.50;72.40;;;;;;4972786;28;20494;-78
2021/09/08 10:57:58;;;;;;;1.50;0.80;;;28.50;72.90;;;;;;4962894;28;21258;-78
2021/09/08 11:00:29;;;;;;;1.50;0.80;;;28.60;73.00;;;;;;4976441;28;20568;-79
2021/09/08 11:02:58;;;;;;;1.43;0.80;;;28.40;72.80;;;;;;4984436;28;20476;-80
2021/09/08 11:05:25;;;;;;;1.50;0.80;;;28.40;74.10;;;;;;4978263;28;20476;-80
2021/09/08 11:07:53;;;;;;;1.70;1.13;;;28.40;74.40;;;;;;4967545;28;20492;-77
2021/09/08 11:10:30;;;;;;;1.50;0.80;;;28.50;72.80;;;;;;4976825;28;20489;-79
2021/09/08 11:12:58;;;;;;;1.50;0.80;;;28.60;72.50;;;;;;4982108;28;20540;-80
2021/09/08 11:15:35;;;;;;;1.60;1.20;;;28.70;71.60;;;;;;4978609;28;20465;-80
2021/09/08 11:18:05;;;;;;;3.00;2.70;;;28.80;72.20;;;;;;4968411;28;20481;-78
2021/09/08 11:20:33;;;;;;;1.50;0.90;;;28.90;70.70;;;;;;4977650;28;20525;-81
2021/09/08 11:23:01;;;;;;;2.07;1.27;;;28.70;69.20;;;;;;4980074;28;20480;-78
2021/09/08 11:25:34;;;;;;;1.50;0.90;;;28.70;71.10;;;;;;4978796;28;20907;-78
2021/09/08 11:28:02;;;;;;;1.47;0.80;;;28.80;71.50;;;;;;4968581;28;20481;-79
2021/09/08 11:30:31;;;;;;;1.50;1.00;;;28.90;70.30;;;;;;4975486;28;20528;-80
2021/09/08 11:33:00;;;;;;;1.50;0.90;;;29.00;70.70;;;;;;4977967;28;20488;-77
2021/09/08 11:35:43;;;;;;;1.43;0.80;;;29.10;69.80;;;;;;4972112;28;20501;-81
2021/09/08 11:38:14;;;;;;;1.43;0.80;;;29.10;69.90;;;;;;4973430;28;20501;-78
2021/09/08 11:40:43;;;;;;;1.50;0.90;;;29.00;69.00;;;;;;4970183;28;20476;-79
2021/09/08 11:43:11;;;;;;;1.47;0.80;;;29.00;70.30;;;;;;4975857;28;20489;-79
2021/09/08 11:45:38;;;;;;;1.50;0.80;;;29.10;69.70;;;;;;4969194;28;20694;-80
2021/09/08 11:48:05;;;;;;;1.50;0.80;;;29.20;69.20;;;;;;4957974;28;20481;-79
2021/09/08 11:50:32;;;;;;;1.40;0.80;;;29.30;69.20;;;;;;4968016;28;20552;-79
2021/09/08 11:53:02;;;;;;;1.50;0.80;;;29.40;69.40;;;;;;4973350;28;20574;-78
2021/09/08 11:55:33;;;;;;;1.50;0.90;;;29.50;69.40;;;;;;4961434;28;20465;-80
2021/09/08 11:58:20;;;;;;;1.47;0.80;;;29.70;68.30;;;;;;4974662;28;20476;-79
2021/09/08 12:01:00;;;;;;;1.47;0.80;;;29.80;68.20;;;;;;4961221;28;20507;-79
2021/09/08 12:03:33;;;;;;;1.50;0.80;;;29.90;68.10;;;;;;4977839;28;20913;-78
2021/09/08 12:06:14;;;;;;;1.50;0.90;;;29.90;67.90;;;;;;4954337;28;20558;-79
2021/09/08 12:08:55;;;;;;;1.47;0.80;;;29.90;67.80;;;;;;4968942;28;20481;-79
2021/09/08 12:11:33;;;;;;;1.50;0.80;;;29.90;67.60;;;;;;4959972;28;20891;-79
2021/09/08 12:14:19;;;;;;;1.50;0.90;;;29.90;66.90;;;;;;4975732;28;20461;-79
2021/09/08 12:16:46;;;;;;;1.47;0.80;;;30.00;66.70;;;;;;4955206;28;20821;-78
2021/09/08 12:19:14;;;;;;;1.47;0.80;;;30.00;66.70;;;;;;4972571;28;20953;-79
2021/09/08 12:21:41;;;;;;;1.50;0.80;;;30.00;66.80;;;;;;4965837;28;20563;-80
2021/09/08 12:24:27;;;;;;;1.47;0.80;;;30.10;67.00;;;;;;4977515;28;20473;-79
2021/09/08 12:26:56;;;;;;;1.50;0.83;;;30.20;65.80;;;;;;4950897;28;20488;-75
2021/09/08 12:29:23;;;;;;;1.50;0.90;;;30.10;66.30;;;;;;4968705;28;20488;-78
2021/09/08 12:31:53;;;;;;;1.47;0.80;;;30.20;66.40;;;;;;4969147;28;20508;-80
2021/09/08 12:34:21;;;;;;;1.70;1.20;;;30.10;66.20;;;;;;4977179;28;20964;-80
2021/09/08 12:36:48;;;;;;;1.47;0.80;;;30.00;65.70;;;;;;4970773;28;20491;-82
2021/09/08 12:39:18;;;;;;;1.47;0.80;;;30.00;65.90;;;;;;4974706;28;20498;-80
2021/09/08 12:41:59;;;;;;;1.50;0.90;;;30.00;66.80;;;;;;4971495;28;20593;-79
2021/09/08 12:44:29;;;;;;;1.70;1.10;;;29.90;67.00;;;;;;4978826;28;20465;-79
2021/09/08 12:47:06;;;;;;;1.47;0.80;;;29.90;65.60;;;;;;4972726;28;21052;-78
2021/09/08 12:49:33;;;;;;;1.47;0.90;;;29.80;66.60;;;;;;4978600;28;20563;-77
2021/09/08 12:52:00;;;;;;;1.50;0.80;;;29.80;66.80;;;;;;4970786;28;20546;-78
2021/09/08 12:54:27;;;;;;;1.60;1.10;;;29.90;67.10;;;;;;4978237;28;20465;-78